Terminal Aerodrome Forecast
Issued by NWS

Home | Current Version | Previous Version | Text Only | Print | Product List | Glossary On
Versions: 1 2 3 4 5 6 7 8 9 10 11 12 13 14 15 16 17 18 19
000
FTUS44 KSJT 270500
TAFBBD
TAF
KBBD 270525Z 2706/2806 03009KT P6SM BKN045
     FM271300 03009KT 4SM -SN BR OVC020
     FM272000 05008KT 6SM -FZDZSN OVC012
     FM280200 04009KT 4SM -FZDZ OVC006=

USA.gov is the U.S. government's official web portal to all federal, state and local government web resources and services.